Time,TemperatureF,DewpointF,PressureIn,WindDirection,WindDirectionDegrees,WindSpeedMPH,WindSpeedGustMPH,Humidity,HourlyPrecipIn,Conditions,Clouds,dailyrainin,SolarRadiationWatts/m^2,SoftwareType,DateUTC
2013-05-08 00:10:00,65.3,57.0,30.03,West,265,0.0,4.0,75,0.00,,,0.00,0,weatherlink.com 1.10,2013-05-08 04:10:00,
2013-05-08 00:25:00,64.8,57.0,30.03,West,259,1.0,4.0,76,0.00,,,0.00,0,weatherlink.com 1.10,2013-05-08 04:25:00,
2013-05-08 00:40:00,64.2,57.0,30.03,West,259,0.0,3.0,77,0.00,,,0.00,0,weatherlink.com 1.10,2013-05-08 04:40:00,
2013-05-08 00:55:00,63.5,57.0,30.03,WSW,257,0.0,6.0,79,0.00,,,0.00,0,weatherlink.com 1.10,2013-05-08 04:55:00,
2013-05-08 01:10:00,62.7,57.0,30.03,WSW,257,0.0,0.0,81,0.00,,,0.00,0,weatherlink.com 1.10,2013-05-08 05:10:00,
2013-05-08 01:25:00,61.5,57.0,30.02,WSW,257,0.0,0.0,85,0.00,,,0.00,0,weatherlink.com 1.10,2013-05-08 05:25:00,
2013-05-08 01:40:00,60.5,56.0,30.02,WSW,257,0.0,0.0,86,0.00,,,0.00,0,weatherlink.com 1.10,2013-05-08 05:40:00,
2013-05-08 01:55:00,59.6,56.0,30.02,WSW,257,0.0,2.0,88,0.00,,,0.00,0,weatherlink.com 1.10,2013-05-08 05:55:00,
2013-05-08 02:10:00,59.2,56.0,30.02,WSW,257,0.0,4.0,90,0.00,,,0.00,0,weatherlink.com 1.10,2013-05-08 06:10:00,
2013-05-08 02:25:00,59.3,56.0,30.01,WSW,257,0.0,4.0,90,0.00,,,0.00,0,weatherlink.com 1.10,2013-05-08 06:25:00,
2013-05-08 02:40:00,59.2,56.0,30.01,WSW,257,0.0,1.0,90,0.00,,,0.00,0,weatherlink.com 1.10,2013-05-08 06:40:00,
2013-05-08 02:55:00,58.9,56.0,30.01,WSW,257,0.0,1.0,91,0.00,,,0.00,0,weatherlink.com 1.10,2013-05-08 06:55:00,
2013-05-08 03:10:00,58.2,56.0,30.00,WSW,257,0.0,0.0,91,0.00,,,0.00,0,weatherlink.com 1.10,2013-05-08 07:10:00,
2013-05-08 03:26:00,57.8,56.0,30.00,WSW,257,0.0,0.0,93,0.00,,,0.00,0,weatherlink.com 1.10,2013-05-08 07:26:00,
2013-05-08 03:40:00,57.6,56.0,30.00,WSW,257,0.0,0.0,93,0.00,,,0.00,0,weatherlink.com 1.10,2013-05-08 07:40:00,
2013-05-08 03:55:00,57.1,55.0,30.00,WSW,257,0.0,0.0,93,0.00,,,0.00,0,weatherlink.com 1.10,2013-05-08 07:55:00,
2013-05-08 04:10:00,56.6,55.0,30.01,WSW,257,0.0,0.0,94,0.00,,,0.00,0,weatherlink.com 1.10,2013-05-08 08:10:00,
2013-05-08 04:25:00,56.1,54.0,30.01,WSW,257,0.0,0.0,94,0.00,,,0.00,0,weatherlink.com 1.10,2013-05-08 08:25:00,
2013-05-08 04:40:00,56.2,55.0,30.01,WSW,257,0.0,0.0,95,0.00,,,0.00,0,weatherlink.com 1.10,2013-05-08 08:40:00,
2013-05-08 04:55:00,56.0,55.0,30.01,WSW,257,0.0,0.0,95,0.00,,,0.00,0,weatherlink.com 1.10,2013-05-08 08:55:00,
2013-05-08 05:10:00,55.7,54.0,30.01,WSW,257,0.0,0.0,95,0.00,,,0.00,0,weatherlink.com 1.10,2013-05-08 09:10:00,
2013-05-08 05:25:00,55.6,55.0,30.02,WSW,257,0.0,0.0,96,0.00,,,0.00,0,weatherlink.com 1.10,2013-05-08 09:25:00,
2013-05-08 05:40:00,55.7,55.0,30.02,WSW,257,0.0,0.0,96,0.00,,,0.00,0,weatherlink.com 1.10,2013-05-08 09:40:00,
2013-05-08 05:55:00,55.4,54.0,30.03,WSW,257,0.0,0.0,96,0.00,,,0.00,0,weatherlink.com 1.10,2013-05-08 09:55:00,
2013-05-08 06:10:00,55.3,54.0,30.03,WSW,257,0.0,0.0,96,0.00,,,0.00,0,weatherlink.com 1.10,2013-05-08 10:10:00,
2013-05-08 06:25:00,55.3,55.0,30.04,WSW,257,0.0,0.0,97,0.00,,,0.00,0,weatherlink.com 1.10,2013-05-08 10:25:00,
2013-05-08 06:41:00,55.0,54.0,30.04,East,88,0.0,1.0,97,0.00,,,0.00,5,weatherlink.com 1.10,2013-05-08 10:41:00,
2013-05-08 06:56:00,55.2,54.0,30.05,East,88,0.0,0.0,97,0.00,,,0.00,14,weatherlink.com 1.10,2013-05-08 10:56:00,
2013-05-08 07:11:00,55.6,55.0,30.06,East,88,0.0,0.0,97,0.00,,,0.00,33,weatherlink.com 1.10,2013-05-08 11:11:00,
2013-05-08 07:26:00,56.3,56.0,30.06,East,88,0.0,0.0,98,0.00,,,0.00,30,weatherlink.com 1.10,2013-05-08 11:26:00,
2013-05-08 07:41:00,57.2,57.0,30.07,NNE,17,0.0,1.0,98,0.00,,,0.00,37,weatherlink.com 1.10,2013-05-08 11:41:00,
2013-05-08 07:56:00,58.8,58.0,30.07,NNE,17,2.0,3.0,98,0.00,,,0.00,42,weatherlink.com 1.10,2013-05-08 11:56:00,
2013-05-08 08:11:00,59.9,59.0,30.08,NNW,333,3.0,3.0,98,0.00,,,0.00,46,weatherlink.com 1.10,2013-05-08 12:11:00,
2013-05-08 08:26:00,60.9,60.0,30.08,NNW,333,0.0,4.0,97,0.00,,,0.00,51,weatherlink.com 1.10,2013-05-08 12:26:00,
2013-05-08 08:41:00,62.3,60.0,30.09,NNW,333,1.0,4.0,93,0.00,,,0.00,65,weatherlink.com 1.10,2013-05-08 12:41:00,
2013-05-08 08:56:00,63.9,61.0,30.09,NNW,333,3.0,4.0,89,0.00,,,0.00,345,weatherlink.com 1.10,2013-05-08 12:56:00,
2013-05-08 09:11:00,66.0,61.0,30.09,WSW,254,1.0,5.0,83,0.00,,,0.00,461,weatherlink.com 1.10,2013-05-08 13:11:00,
2013-05-08 09:26:00,68.1,62.0,30.09,West,270,0.0,6.0,80,0.00,,,0.00,526,weatherlink.com 1.10,2013-05-08 13:26:00,
2013-05-08 09:41:00,70.3,62.0,30.10,NW,319,1.0,5.0,74,0.00,,,0.00,582,weatherlink.com 1.10,2013-05-08 13:41:00,
2013-05-08 09:56:00,72.0,61.0,30.10,NW,318,2.0,5.0,68,0.00,,,0.00,631,weatherlink.com 1.10,2013-05-08 13:56:00,
2013-05-08 10:11:00,73.4,61.0,30.10,NW,323,4.0,9.0,66,0.00,,,0.00,679,weatherlink.com 1.10,2013-05-08 14:11:00,
2013-05-08 10:26:00,74.1,60.0,30.10,NW,315,0.0,9.0,62,0.00,,,0.00,728,weatherlink.com 1.10,2013-05-08 14:26:00,
2013-05-08 10:41:00,75.2,59.0,30.10,NW,312,4.0,12.0,58,0.00,,,0.00,780,weatherlink.com 1.10,2013-05-08 14:41:00,
2013-05-08 10:56:00,75.2,57.0,30.10,WSW,247,7.0,12.0,53,0.00,,,0.00,902,weatherlink.com 1.10,2013-05-08 14:56:00,
2013-05-08 11:11:00,74.9,56.0,30.10,NW,309,9.0,10.0,53,0.00,,,0.00,135,weatherlink.com 1.10,2013-05-08 15:11:00,
2013-05-08 11:27:00,76.4,56.0,30.10,NNW,328,5.0,9.0,50,0.00,,,0.00,972,weatherlink.com 1.10,2013-05-08 15:27:00,
2013-05-08 11:42:00,76.6,55.0,30.10,South,180,3.0,12.0,48,0.00,,,0.00,1032,weatherlink.com 1.10,2013-05-08 15:42:00,
2013-05-08 11:58:00,77.0,57.0,30.10,SW,219,3.0,14.0,50,0.00,,,0.00,338,weatherlink.com 1.10,2013-05-08 15:58:00,
2013-05-08 12:12:00,76.9,56.0,30.09,SSW,213,2.0,16.0,49,0.00,,,0.00,1114,weatherlink.com 1.10,2013-05-08 16:12:00,
2013-05-08 12:27:00,77.8,56.0,30.09,NW,305,4.0,11.0,47,0.00,,,0.00,214,weatherlink.com 1.10,2013-05-08 16:27:00,
2013-05-08 12:42:00,78.7,57.0,30.08,West,265,10.0,14.0,48,0.00,,,0.00,1245,weatherlink.com 1.10,2013-05-08 16:42:00,
2013-05-08 12:57:00,78.3,57.0,30.08,WNW,284,4.0,12.0,48,0.00,,,0.00,1097,weatherlink.com 1.10,2013-05-08 16:57:00,
2013-05-08 13:12:00,79.1,55.0,30.07,West,260,0.0,16.0,44,0.00,,,0.00,1187,weatherlink.com 1.10,2013-05-08 17:12:00,
2013-05-08 13:27:00,79.8,55.0,30.07,WSW,244,4.0,15.0,42,0.00,,,0.00,294,weatherlink.com 1.10,2013-05-08 17:27:00,
2013-05-08 13:42:00,78.4,56.0,30.07,WNW,288,3.0,12.0,47,0.00,,,0.00,1229,weatherlink.com 1.10,2013-05-08 17:42:00,
2013-05-08 13:57:00,79.5,56.0,30.07,NW,304,1.0,13.0,45,0.00,,,0.00,1188,weatherlink.com 1.10,2013-05-08 17:57:00,
2013-05-08 14:12:00,80.4,56.0,30.07,West,261,2.0,14.0,43,0.00,,,0.00,301,weatherlink.com 1.10,2013-05-08 18:12:00,
2013-05-08 14:27:00,80.0,56.0,30.06,NW,313,4.0,12.0,44,0.00,,,0.00,1062,weatherlink.com 1.10,2013-05-08 18:27:00,
2013-05-08 14:42:00,80.7,55.0,30.06,West,264,6.0,12.0,41,0.00,,,0.00,301,weatherlink.com 1.10,2013-05-08 18:42:00,
2013-05-08 14:57:00,79.9,55.0,30.05,SSW,202,7.0,10.0,42,0.00,,,0.00,364,weatherlink.com 1.10,2013-05-08 18:57:00,
2013-05-08 15:12:00,79.9,58.0,30.05,WSW,249,3.0,11.0,47,0.00,,,0.00,993,weatherlink.com 1.10,2013-05-08 19:12:00,
2013-05-08 15:27:00,80.5,55.0,30.05,SW,236,2.0,12.0,42,0.00,,,0.00,309,weatherlink.com 1.10,2013-05-08 19:27:00,
2013-05-08 15:42:00,80.2,56.0,30.05,WSW,257,7.0,10.0,44,0.00,,,0.00,267,weatherlink.com 1.10,2013-05-08 19:42:00,
2013-05-08 15:57:00,80.3,55.0,30.04,West,271,4.0,14.0,42,0.00,,,0.00,932,weatherlink.com 1.10,2013-05-08 19:57:00,
2013-05-08 16:12:00,80.2,55.0,30.04,SSW,212,2.0,7.0,42,0.00,,,0.00,244,weatherlink.com 1.10,2013-05-08 20:12:00,
2013-05-08 16:27:00,81.8,56.0,30.03,West,273,6.0,13.0,41,0.00,,,0.00,838,weatherlink.com 1.10,2013-05-08 20:27:00,
2013-05-08 16:42:00,82.0,55.0,30.03,WNW,302,3.0,13.0,40,0.00,,,0.00,809,weatherlink.com 1.10,2013-05-08 20:42:00,
2013-05-08 16:57:00,82.5,54.0,30.03,NNW,338,5.0,12.0,38,0.00,,,0.00,223,weatherlink.com 1.10,2013-05-08 20:57:00,
2013-05-08 17:12:00,81.1,55.0,30.03,West,271,3.0,10.0,41,0.00,,,0.00,691,weatherlink.com 1.10,2013-05-08 21:12:00,
2013-05-08 17:27:00,80.3,55.0,30.03,NW,325,6.0,8.0,42,0.00,,,0.00,218,weatherlink.com 1.10,2013-05-08 21:27:00,
2013-05-08 17:42:00,77.7,63.0,30.03,SE,135,4.0,8.0,61,0.00,,,0.00,199,weatherlink.com 1.10,2013-05-08 21:42:00,
2013-05-08 17:57:00,75.6,64.0,30.03,East,101,0.0,7.0,67,0.00,,,0.00,255,weatherlink.com 1.10,2013-05-08 21:57:00,
2013-05-08 18:12:00,74.3,65.0,30.03,SE,142,4.0,9.0,72,0.00,,,0.00,153,weatherlink.com 1.10,2013-05-08 22:12:00,
2013-05-08 18:27:00,74.1,64.0,30.03,ESE,106,1.0,8.0,71,0.00,,,0.00,116,weatherlink.com 1.10,2013-05-08 22:27:00,
2013-05-08 18:42:00,73.9,65.0,30.03,ESE,105,0.0,6.0,73,0.00,,,0.00,250,weatherlink.com 1.10,2013-05-08 22:42:00,
2013-05-08 18:57:00,74.1,65.0,30.03,ESE,105,4.0,6.0,72,0.00,,,0.00,65,weatherlink.com 1.10,2013-05-08 22:57:00,
2013-05-08 19:12:00,73.1,65.0,30.04,East,100,0.0,7.0,75,0.00,,,0.00,104,weatherlink.com 1.10,2013-05-08 23:12:00,
2013-05-08 19:27:00,72.2,64.0,30.04,East,100,1.0,4.0,76,0.00,,,0.00,40,weatherlink.com 1.10,2013-05-08 23:27:00,
2013-05-08 19:42:00,71.6,64.0,30.05,East,97,0.0,7.0,76,0.00,,,0.00,21,weatherlink.com 1.10,2013-05-08 23:42:00,
2013-05-08 19:57:00,70.8,64.0,30.05,East,97,0.0,4.0,79,0.00,,,0.00,11,weatherlink.com 1.10,2013-05-08 23:57:00,
2013-05-08 20:12:00,70.1,64.0,30.05,East,97,2.0,3.0,82,0.00,,,0.00,0,weatherlink.com 1.10,2013-05-09 00:12:00,
2013-05-08 20:27:00,69.5,64.0,30.05,East,97,0.0,4.0,82,0.00,,,0.00,0,weatherlink.com 1.10,2013-05-09 00:27:00,
2013-05-08 20:42:00,69.0,64.0,30.06,East,97,0.0,3.0,83,0.00,,,0.00,0,weatherlink.com 1.10,2013-05-09 00:42:00,
2013-05-08 20:57:00,68.3,63.0,30.07,East,97,0.0,0.0,84,0.00,,,0.00,0,weatherlink.com 1.10,2013-05-09 00:57:00,
2013-05-08 21:12:00,67.4,63.0,30.07,East,97,0.0,0.0,86,0.00,,,0.00,0,weatherlink.com 1.10,2013-05-09 01:12:00,
2013-05-08 21:27:00,66.5,63.0,30.08,East,97,0.0,0.0,89,0.00,,,0.00,0,weatherlink.com 1.10,2013-05-09 01:27:00,
2013-05-08 21:42:00,65.8,63.0,30.09,East,97,0.0,0.0,90,0.00,,,0.00,0,weatherlink.com 1.10,2013-05-09 01:42:00,
2013-05-08 21:57:00,65.0,62.0,30.09,East,97,0.0,0.0,91,0.00,,,0.00,0,weatherlink.com 1.10,2013-05-09 01:57:00,
2013-05-08 22:12:00,64.6,62.0,30.09,East,97,0.0,1.0,92,0.00,,,0.00,0,weatherlink.com 1.10,2013-05-09 02:12:00,
2013-05-08 22:27:00,64.2,62.0,30.09,East,97,0.0,0.0,92,0.00,,,0.00,0,weatherlink.com 1.10,2013-05-09 02:27:00,
2013-05-08 22:42:00,63.8,62.0,30.10,East,97,0.0,0.0,93,0.00,,,0.00,0,weatherlink.com 1.10,2013-05-09 02:42:00,
2013-05-08 22:57:00,63.4,62.0,30.10,East,97,0.0,0.0,94,0.00,,,0.00,0,weatherlink.com 1.10,2013-05-09 02:57:00,
2013-05-08 23:12:00,63.3,62.0,30.10,East,97,0.0,1.0,95,0.00,,,0.00,0,weatherlink.com 1.10,2013-05-09 03:12:00,
2013-05-08 23:27:00,63.1,62.0,30.11,East,97,0.0,0.0,95,0.00,,,0.00,0,weatherlink.com 1.10,2013-05-09 03:27:00,
2013-05-08 23:42:00,63.0,62.0,30.11,East,97,0.0,0.0,95,0.00,,,0.00,0,weatherlink.com 1.10,2013-05-09 03:42:00,
2013-05-08 23:57:00,63.0,61.0,30.11,East,97,0.0,6.0,94,0.00,,,0.00,0,weatherlink.com 1.10,2013-05-09 03:57:00,